sensor_id;sensor_type;location;lat;lon;timestamp;temperature;humidity
33007;DHT22;19361;51.598;7.650;2023-06-19T00:01:22;27.30;38.30
33007;DHT22;19361;51.598;7.650;2023-06-19T00:06:43;27.30;38.40
33007;DHT22;19361;51.598;7.650;2023-06-19T00:12:04;27.30;38.40
33007;DHT22;19361;51.598;7.650;2023-06-19T00:17:25;27.30;38.60
33007;DHT22;19361;51.598;7.650;2023-06-19T00:22:48;27.20;38.50
33007;DHT22;19361;51.598;7.650;2023-06-19T00:28:12;27.20;38.70
33007;DHT22;19361;51.598;7.650;2023-06-19T00:33:34;27.20;39.00
33007;DHT22;19361;51.598;7.650;2023-06-19T00:38:55;27.20;39.30
33007;DHT22;19361;51.598;7.650;2023-06-19T00:44:17;27.10;39.60
33007;DHT22;19361;51.598;7.650;2023-06-19T00:49:38;27.10;40.20
33007;DHT22;19361;51.598;7.650;2023-06-19T00:54:59;27.00;40.50
33007;DHT22;19361;51.598;7.650;2023-06-19T01:00:20;27.00;41.00
33007;DHT22;19361;51.598;7.650;2023-06-19T01:05:42;26.90;41.10
33007;DHT22;19361;51.598;7.650;2023-06-19T01:11:05;26.80;41.20
33007;DHT22;19361;51.598;7.650;2023-06-19T01:16:28;26.80;41.60
33007;DHT22;19361;51.598;7.650;2023-06-19T01:21:49;26.70;41.70
33007;DHT22;19361;51.598;7.650;2023-06-19T01:27:11;26.70;41.70
33007;DHT22;19361;51.598;7.650;2023-06-19T01:32:53;26.60;41.70
33007;DHT22;19361;51.598;7.650;2023-06-19T01:38:22;26.60;42.20
33007;DHT22;19361;51.598;7.650;2023-06-19T01:43:46;26.50;41.90
33007;DHT22;19361;51.598;7.650;2023-06-19T01:49:08;26.50;42.20
33007;DHT22;19361;51.598;7.650;2023-06-19T01:54:30;26.50;42.40
33007;DHT22;19361;51.598;7.650;2023-06-19T01:59:51;26.40;42.60
33007;DHT22;19361;51.598;7.650;2023-06-19T02:05:13;26.40;43.00
33007;DHT22;19361;51.598;7.650;2023-06-19T02:10:34;26.40;43.00
33007;DHT22;19361;51.598;7.650;2023-06-19T02:15:55;26.40;42.90
33007;DHT22;19361;51.598;7.650;2023-06-19T02:21:16;26.30;43.10
33007;DHT22;19361;51.598;7.650;2023-06-19T02:26:38;26.30;43.10
33007;DHT22;19361;51.598;7.650;2023-06-19T02:31:59;26.30;43.30
33007;DHT22;19361;51.598;7.650;2023-06-19T02:37:21;26.20;43.20
33007;DHT22;19361;51.598;7.650;2023-06-19T02:42:42;26.20;43.30
33007;DHT22;19361;51.598;7.650;2023-06-19T02:48:04;26.20;43.40
33007;DHT22;19361;51.598;7.650;2023-06-19T02:53:26;26.20;43.70
33007;DHT22;19361;51.598;7.650;2023-06-19T02:58:47;26.10;43.80
33007;DHT22;19361;51.598;7.650;2023-06-19T03:04:08;26.10;43.90
33007;DHT22;19361;51.598;7.650;2023-06-19T03:09:29;26.10;44.00
33007;DHT22;19361;51.598;7.650;2023-06-19T03:14:50;26.00;43.90
33007;DHT22;19361;51.598;7.650;2023-06-19T03:20:11;26.00;43.80
33007;DHT22;19361;51.598;7.650;2023-06-19T03:25:32;26.00;43.90
33007;DHT22;19361;51.598;7.650;2023-06-19T03:30:55;26.00;44.00
33007;DHT22;19361;51.598;7.650;2023-06-19T03:36:16;26.00;44.00
33007;DHT22;19361;51.598;7.650;2023-06-19T03:41:37;26.00;44.10
33007;DHT22;19361;51.598;7.650;2023-06-19T03:46:58;25.90;43.90
33007;DHT22;19361;51.598;7.650;2023-06-19T03:52:20;25.90;43.90
33007;DHT22;19361;51.598;7.650;2023-06-19T03:57:41;25.90;44.30
33007;DHT22;19361;51.598;7.650;2023-06-19T04:03:02;25.90;43.90
33007;DHT22;19361;51.598;7.650;2023-06-19T04:08:23;25.90;44.40
33007;DHT22;19361;51.598;7.650;2023-06-19T04:13:46;26.00;45.30
33007;DHT22;19361;51.598;7.650;2023-06-19T04:19:07;26.00;45.50
33007;DHT22;19361;51.598;7.650;2023-06-19T04:24:28;26.00;46.10
33007;DHT22;19361;51.598;7.650;2023-06-19T04:29:49;26.10;46.30
33007;DHT22;19361;51.598;7.650;2023-06-19T04:35:13;26.20;46.60
33007;DHT22;19361;51.598;7.650;2023-06-19T04:40:35;26.40;46.70
33007;DHT22;19361;51.598;7.650;2023-06-19T04:45:56;26.60;46.50
33007;DHT22;19361;51.598;7.650;2023-06-19T04:51:18;26.80;46.30
33007;DHT22;19361;51.598;7.650;2023-06-19T04:56:41;27.10;46.30
33007;DHT22;19361;51.598;7.650;2023-06-19T05:02:02;27.20;45.90
33007;DHT22;19361;51.598;7.650;2023-06-19T05:07:24;27.40;45.90
33007;DHT22;19361;51.598;7.650;2023-06-19T05:12:45;27.60;45.80
33007;DHT22;19361;51.598;7.650;2023-06-19T05:18:06;27.80;45.60
33007;DHT22;19361;51.598;7.650;2023-06-19T05:23:27;28.00;45.30
33007;DHT22;19361;51.598;7.650;2023-06-19T05:28:49;28.00;44.90
33007;DHT22;19361;51.598;7.650;2023-06-19T05:34:10;27.90;45.20
33007;DHT22;19361;51.598;7.650;2023-06-19T05:39:31;28.10;45.60
33007;DHT22;19361;51.598;7.650;2023-06-19T05:44:52;28.20;45.40
33007;DHT22;19361;51.598;7.650;2023-06-19T05:50:13;28.40;45.20
33007;DHT22;19361;51.598;7.650;2023-06-19T05:55:34;28.40;44.50
33007;DHT22;19361;51.598;7.650;2023-06-19T06:00:55;28.10;44.70
33007;DHT22;19361;51.598;7.650;2023-06-19T06:06:18;28.00;45.30
33007;DHT22;19361;51.598;7.650;2023-06-19T06:11:39;28.00;45.40
33007;DHT22;19361;51.598;7.650;2023-06-19T06:17:00;28.00;45.50
33007;DHT22;19361;51.598;7.650;2023-06-19T06:22:21;27.90;45.50
33007;DHT22;19361;51.598;7.650;2023-06-19T06:27:42;27.80;45.60
33007;DHT22;19361;51.598;7.650;2023-06-19T06:33:03;27.80;45.90
33007;DHT22;19361;51.598;7.650;2023-06-19T06:38:24;27.70;46.30
33007;DHT22;19361;51.598;7.650;2023-06-19T06:43:45;27.80;46.20
33007;DHT22;19361;51.598;7.650;2023-06-19T06:49:06;27.80;46.10
33007;DHT22;19361;51.598;7.650;2023-06-19T06:54:27;27.80;46.10
33007;DHT22;19361;51.598;7.650;2023-06-19T06:59:48;27.90;46.10
33007;DHT22;19361;51.598;7.650;2023-06-19T07:05:10;27.90;45.60
33007;DHT22;19361;51.598;7.650;2023-06-19T07:10:31;27.80;45.80
33007;DHT22;19361;51.598;7.650;2023-06-19T07:15:52;27.70;46.60
33007;DHT22;19361;51.598;7.650;2023-06-19T07:21:14;27.70;45.80
33007;DHT22;19361;51.598;7.650;2023-06-19T07:26:35;27.70;45.90
33007;DHT22;19361;51.598;7.650;2023-06-19T07:31:56;27.60;46.10
33007;DHT22;19361;51.598;7.650;2023-06-19T07:37:18;27.60;46.40
33007;DHT22;19361;51.598;7.650;2023-06-19T07:42:39;27.70;46.40
33007;DHT22;19361;51.598;7.650;2023-06-19T07:48:00;27.70;46.40
33007;DHT22;19361;51.598;7.650;2023-06-19T07:53:22;27.70;46.30
33007;DHT22;19361;51.598;7.650;2023-06-19T07:58:43;27.80;46.40
33007;DHT22;19361;51.598;7.650;2023-06-19T08:04:04;27.80;46.20
33007;DHT22;19361;51.598;7.650;2023-06-19T08:09:25;27.70;46.30
33007;DHT22;19361;51.598;7.650;2023-06-19T08:14:46;27.70;46.40
33007;DHT22;19361;51.598;7.650;2023-06-19T08:20:07;27.60;46.70
33007;DHT22;19361;51.598;7.650;2023-06-19T08:25:29;27.70;47.00
33007;DHT22;19361;51.598;7.650;2023-06-19T08:30:50;27.70;47.20
33007;DHT22;19361;51.598;7.650;2023-06-19T08:36:11;27.90;47.00
33007;DHT22;19361;51.598;7.650;2023-06-19T08:41:32;28.00;46.60
33007;DHT22;19361;51.598;7.650;2023-06-19T08:46:53;28.10;46.30
33007;DHT22;19361;51.598;7.650;2023-06-19T08:52:14;28.10;46.10
33007;DHT22;19361;51.598;7.650;2023-06-19T08:57:39;28.20;46.50
33007;DHT22;19361;51.598;7.650;2023-06-19T09:03:02;28.20;46.60
33007;DHT22;19361;51.598;7.650;2023-06-19T09:08:23;28.10;46.40
33007;DHT22;19361;51.598;7.650;2023-06-19T09:13:55;28.10;46.60
33007;DHT22;19361;51.598;7.650;2023-06-19T09:19:21;28.10;46.70
33007;DHT22;19361;51.598;7.650;2023-06-19T09:24:42;28.10;46.90
33007;DHT22;19361;51.598;7.650;2023-06-19T09:30:05;28.20;47.10
33007;DHT22;19361;51.598;7.650;2023-06-19T09:35:26;28.20;47.20
33007;DHT22;19361;51.598;7.650;2023-06-19T09:40:48;28.40;47.20
33007;DHT22;19361;51.598;7.650;2023-06-19T09:46:10;28.50;47.20
33007;DHT22;19361;51.598;7.650;2023-06-19T09:51:35;28.60;46.70
33007;DHT22;19361;51.598;7.650;2023-06-19T09:56:59;28.80;46.20
33007;DHT22;19361;51.598;7.650;2023-06-19T10:02:26;29.00;45.90
33007;DHT22;19361;51.598;7.650;2023-06-19T10:07:48;29.20;45.70
33007;DHT22;19361;51.598;7.650;2023-06-19T10:13:14;29.30;45.40
33007;DHT22;19361;51.598;7.650;2023-06-19T10:18:54;29.30;45.40
33007;DHT22;19361;51.598;7.650;2023-06-19T10:24:17;29.50;44.30
33007;DHT22;19361;51.598;7.650;2023-06-19T10:29:40;29.70;44.90
33007;DHT22;19361;51.598;7.650;2023-06-19T10:35:11;29.90;44.40
33007;DHT22;19361;51.598;7.650;2023-06-19T10:40:33;29.90;43.00
33007;DHT22;19361;51.598;7.650;2023-06-19T10:45:55;30.00;42.80
33007;DHT22;19361;51.598;7.650;2023-06-19T10:51:19;30.00;42.60
33007;DHT22;19361;51.598;7.650;2023-06-19T10:56:40;30.20;42.60
33007;DHT22;19361;51.598;7.650;2023-06-19T11:02:04;30.40;42.40
33007;DHT22;19361;51.598;7.650;2023-06-19T11:07:27;30.50;41.70
33007;DHT22;19361;51.598;7.650;2023-06-19T11:12:49;30.50;41.60
33007;DHT22;19361;51.598;7.650;2023-06-19T11:18:11;30.40;41.00
33007;DHT22;19361;51.598;7.650;2023-06-19T11:23:32;30.40;41.00
33007;DHT22;19361;51.598;7.650;2023-06-19T11:28:54;30.60;40.80
33007;DHT22;19361;51.598;7.650;2023-06-19T11:34:16;30.70;40.50
33007;DHT22;19361;51.598;7.650;2023-06-19T11:39:37;30.70;40.50
33007;DHT22;19361;51.598;7.650;2023-06-19T11:45:03;30.80;40.90
33007;DHT22;19361;51.598;7.650;2023-06-19T11:50:27;30.80;39.60
33007;DHT22;19361;51.598;7.650;2023-06-19T11:55:49;30.90;39.70
33007;DHT22;19361;51.598;7.650;2023-06-19T12:01:11;31.10;40.00
33007;DHT22;19361;51.598;7.650;2023-06-19T12:06:32;31.40;39.30
33007;DHT22;19361;51.598;7.650;2023-06-19T12:11:53;31.60;38.80
33007;DHT22;19361;51.598;7.650;2023-06-19T12:17:14;31.80;39.00
33007;DHT22;19361;51.598;7.650;2023-06-19T12:22:35;32.10;38.90
33007;DHT22;19361;51.598;7.650;2023-06-19T12:27:56;32.30;37.90
33007;DHT22;19361;51.598;7.650;2023-06-19T12:33:18;32.40;38.20
33007;DHT22;19361;51.598;7.650;2023-06-19T12:38:41;32.50;37.30
33007;DHT22;19361;51.598;7.650;2023-06-19T12:44:02;32.70;36.70
33007;DHT22;19361;51.598;7.650;2023-06-19T12:49:23;32.60;36.60
33007;DHT22;19361;51.598;7.650;2023-06-19T12:54:44;32.70;36.00
33007;DHT22;19361;51.598;7.650;2023-06-19T13:00:09;32.70;36.20
33007;DHT22;19361;51.598;7.650;2023-06-19T13:05:33;32.70;35.90
33007;DHT22;19361;51.598;7.650;2023-06-19T13:10:54;32.60;35.10
33007;DHT22;19361;51.598;7.650;2023-06-19T13:16:15;32.60;36.00
33007;DHT22;19361;51.598;7.650;2023-06-19T13:21:40;32.50;34.90
33007;DHT22;19361;51.598;7.650;2023-06-19T13:27:02;32.50;35.20
33007;DHT22;19361;51.598;7.650;2023-06-19T13:32:23;32.50;34.70
33007;DHT22;19361;51.598;7.650;2023-06-19T13:37:44;32.50;34.30
33007;DHT22;19361;51.598;7.650;2023-06-19T13:43:05;32.50;35.30
33007;DHT22;19361;51.598;7.650;2023-06-19T13:48:27;32.50;35.40
33007;DHT22;19361;51.598;7.650;2023-06-19T13:53:48;32.60;35.50
33007;DHT22;19361;51.598;7.650;2023-06-19T13:59:10;32.60;35.40
33007;DHT22;19361;51.598;7.650;2023-06-19T14:04:31;32.70;35.50
33007;DHT22;19361;51.598;7.650;2023-06-19T14:09:52;32.80;35.50
33007;DHT22;19361;51.598;7.650;2023-06-19T14:15:15;32.80;34.20
33007;DHT22;19361;51.598;7.650;2023-06-19T14:20:36;32.80;34.80
33007;DHT22;19361;51.598;7.650;2023-06-19T14:25:57;32.80;34.40
33007;DHT22;19361;51.598;7.650;2023-06-19T14:31:18;32.80;34.90
33007;DHT22;19361;51.598;7.650;2023-06-19T14:36:39;32.90;34.90
33007;DHT22;19361;51.598;7.650;2023-06-19T14:42:00;32.90;34.30
33007;DHT22;19361;51.598;7.650;2023-06-19T14:47:21;32.90;33.90
33007;DHT22;19361;51.598;7.650;2023-06-19T14:52:42;32.80;33.80
33007;DHT22;19361;51.598;7.650;2023-06-19T14:58:05;32.80;33.30
33007;DHT22;19361;51.598;7.650;2023-06-19T15:03:26;32.80;33.70
33007;DHT22;19361;51.598;7.650;2023-06-19T15:08:47;32.80;34.00
33007;DHT22;19361;51.598;7.650;2023-06-19T15:14:08;32.80;33.80
33007;DHT22;19361;51.598;7.650;2023-06-19T15:19:29;32.80;33.50
33007;DHT22;19361;51.598;7.650;2023-06-19T15:24:50;32.80;33.50
33007;DHT22;19361;51.598;7.650;2023-06-19T15:30:11;32.80;33.00
33007;DHT22;19361;51.598;7.650;2023-06-19T15:35:33;32.80;33.70
33007;DHT22;19361;51.598;7.650;2023-06-19T15:40:54;32.80;33.80
33007;DHT22;19361;51.598;7.650;2023-06-19T15:46:15;32.90;33.40
33007;DHT22;19361;51.598;7.650;2023-06-19T15:51:37;32.90;33.10
33007;DHT22;19361;51.598;7.650;2023-06-19T15:56:58;32.90;33.20
33007;DHT22;19361;51.598;7.650;2023-06-19T16:02:19;32.90;32.80
33007;DHT22;19361;51.598;7.650;2023-06-19T16:07:41;32.90;33.20
33007;DHT22;19361;51.598;7.650;2023-06-19T16:13:02;33.00;33.20
33007;DHT22;19361;51.598;7.650;2023-06-19T16:18:23;33.00;33.10
33007;DHT22;19361;51.598;7.650;2023-06-19T16:23:44;33.00;32.70
33007;DHT22;19361;51.598;7.650;2023-06-19T16:29:05;33.00;32.60
33007;DHT22;19361;51.598;7.650;2023-06-19T16:34:27;33.10;33.00
33007;DHT22;19361;51.598;7.650;2023-06-19T16:39:48;33.10;32.60
33007;DHT22;19361;51.598;7.650;2023-06-19T16:45:09;33.20;32.00
33007;DHT22;19361;51.598;7.650;2023-06-19T16:50:30;33.30;32.30
33007;DHT22;19361;51.598;7.650;2023-06-19T16:55:52;33.40;32.40
33007;DHT22;19361;51.598;7.650;2023-06-19T17:01:16;33.60;31.70
33007;DHT22;19361;51.598;7.650;2023-06-19T17:06:37;33.70;31.60
33007;DHT22;19361;51.598;7.650;2023-06-19T17:11:59;34.00;31.60
33007;DHT22;19361;51.598;7.650;2023-06-19T17:17:20;34.10;31.10
33007;DHT22;19361;51.598;7.650;2023-06-19T17:22:41;34.30;31.10
33007;DHT22;19361;51.598;7.650;2023-06-19T17:28:02;34.50;30.80
33007;DHT22;19361;51.598;7.650;2023-06-19T17:33:23;34.70;30.40
33007;DHT22;19361;51.598;7.650;2023-06-19T17:38:44;34.80;30.20
33007;DHT22;19361;51.598;7.650;2023-06-19T17:44:05;34.90;30.20
33007;DHT22;19361;51.598;7.650;2023-06-19T17:49:27;34.90;30.00
33007;DHT22;19361;51.598;7.650;2023-06-19T17:54:48;34.90;30.00
33007;DHT22;19361;51.598;7.650;2023-06-19T18:00:14;34.90;30.40
33007;DHT22;19361;51.598;7.650;2023-06-19T18:05:35;34.80;30.20
33007;DHT22;19361;51.598;7.650;2023-06-19T18:10:56;34.50;30.00
33007;DHT22;19361;51.598;7.650;2023-06-19T18:16:18;34.30;30.30
33007;DHT22;19361;51.598;7.650;2023-06-19T18:21:39;33.80;30.30
33007;DHT22;19361;51.598;7.650;2023-06-19T18:27:00;33.30;30.70
33007;DHT22;19361;51.598;7.650;2023-06-19T18:32:21;32.80;31.20
33007;DHT22;19361;51.598;7.650;2023-06-19T18:37:43;32.40;32.20
33007;DHT22;19361;51.598;7.650;2023-06-19T18:43:04;32.00;32.50
33007;DHT22;19361;51.598;7.650;2023-06-19T18:48:25;31.70;32.90
33007;DHT22;19361;51.598;7.650;2023-06-19T18:53:46;31.40;33.40
33007;DHT22;19361;51.598;7.650;2023-06-19T18:59:07;31.20;33.90
33007;DHT22;19361;51.598;7.650;2023-06-19T19:04:28;30.90;34.00
33007;DHT22;19361;51.598;7.650;2023-06-19T19:09:49;30.80;34.30
33007;DHT22;19361;51.598;7.650;2023-06-19T19:15:10;30.60;34.70
33007;DHT22;19361;51.598;7.650;2023-06-19T19:20:31;30.50;34.90
33007;DHT22;19361;51.598;7.650;2023-06-19T19:25:52;30.30;35.00
33007;DHT22;19361;51.598;7.650;2023-06-19T19:31:13;30.10;34.90
33007;DHT22;19361;51.598;7.650;2023-06-19T19:36:34;30.00;35.10
33007;DHT22;19361;51.598;7.650;2023-06-19T19:41:56;29.80;35.30
33007;DHT22;19361;51.598;7.650;2023-06-19T19:47:17;29.70;35.40
33007;DHT22;19361;51.598;7.650;2023-06-19T19:52:38;29.60;35.50
33007;DHT22;19361;51.598;7.650;2023-06-19T19:57:59;29.50;35.80
33007;DHT22;19361;51.598;7.650;2023-06-19T20:03:21;29.30;36.00
33007;DHT22;19361;51.598;7.650;2023-06-19T20:08:43;29.20;36.20
33007;DHT22;19361;51.598;7.650;2023-06-19T20:14:04;29.10;36.40
33007;DHT22;19361;51.598;7.650;2023-06-19T20:19:25;29.00;36.60
33007;DHT22;19361;51.598;7.650;2023-06-19T20:24:46;28.80;36.80
33007;DHT22;19361;51.598;7.650;2023-06-19T20:30:08;28.80;37.00
33007;DHT22;19361;51.598;7.650;2023-06-19T20:35:29;28.70;37.30
33007;DHT22;19361;51.598;7.650;2023-06-19T20:40:50;28.60;37.60
33007;DHT22;19361;51.598;7.650;2023-06-19T20:46:12;28.50;37.70
33007;DHT22;19361;51.598;7.650;2023-06-19T20:51:33;28.40;38.00
33007;DHT22;19361;51.598;7.650;2023-06-19T20:56:54;28.30;38.20
33007;DHT22;19361;51.598;7.650;2023-06-19T21:02:15;28.20;38.40
33007;DHT22;19361;51.598;7.650;2023-06-19T21:07:36;28.10;38.80
33007;DHT22;19361;51.598;7.650;2023-06-19T21:12:57;28.00;38.90
33007;DHT22;19361;51.598;7.650;2023-06-19T21:18:19;27.90;39.20
33007;DHT22;19361;51.598;7.650;2023-06-19T21:23:40;27.80;39.70
33007;DHT22;19361;51.598;7.650;2023-06-19T21:29:01;27.70;39.80
33007;DHT22;19361;51.598;7.650;2023-06-19T21:34:22;27.70;40.00
33007;DHT22;19361;51.598;7.650;2023-06-19T21:39:45;27.60;40.10
33007;DHT22;19361;51.598;7.650;2023-06-19T21:45:07;27.50;40.20
33007;DHT22;19361;51.598;7.650;2023-06-19T21:50:28;27.50;40.50
33007;DHT22;19361;51.598;7.650;2023-06-19T21:55:49;27.40;40.50
33007;DHT22;19361;51.598;7.650;2023-06-19T22:01:10;27.30;40.80
33007;DHT22;19361;51.598;7.650;2023-06-19T22:06:31;27.30;41.60
33007;DHT22;19361;51.598;7.650;2023-06-19T22:11:52;27.20;41.30
33007;DHT22;19361;51.598;7.650;2023-06-19T22:17:14;27.10;41.50
33007;DHT22;19361;51.598;7.650;2023-06-19T22:22:35;27.10;41.60
33007;DHT22;19361;51.598;7.650;2023-06-19T22:27:56;27.00;41.70
33007;DHT22;19361;51.598;7.650;2023-06-19T22:33:17;26.90;41.70
33007;DHT22;19361;51.598;7.650;2023-06-19T22:38:38;26.90;42.10
33007;DHT22;19361;51.598;7.650;2023-06-19T22:43:59;26.80;42.10
33007;DHT22;19361;51.598;7.650;2023-06-19T22:49:23;26.80;42.40
33007;DHT22;19361;51.598;7.650;2023-06-19T22:54:45;26.70;43.00
33007;DHT22;19361;51.598;7.650;2023-06-19T23:00:07;26.70;42.50
33007;DHT22;19361;51.598;7.650;2023-06-19T23:05:32;26.60;42.60
33007;DHT22;19361;51.598;7.650;2023-06-19T23:10:56;26.60;42.70
33007;DHT22;19361;51.598;7.650;2023-06-19T23:16:17;26.60;43.20
33007;DHT22;19361;51.598;7.650;2023-06-19T23:21:38;26.50;43.20
33007;DHT22;19361;51.598;7.650;2023-06-19T23:26:59;26.50;43.40
33007;DHT22;19361;51.598;7.650;2023-06-19T23:32:20;26.40;43.50
33007;DHT22;19361;51.598;7.650;2023-06-19T23:37:42;26.30;43.40
33007;DHT22;19361;51.598;7.650;2023-06-19T23:43:03;26.30;43.90
33007;DHT22;19361;51.598;7.650;2023-06-19T23:48:24;26.30;43.90
33007;DHT22;19361;51.598;7.650;2023-06-19T23:53:45;26.20;44.30
33007;DHT22;19361;51.598;7.650;2023-06-19T23:59:07;26.20;44.60
